UTP weather

U-Tapao International Airport
Rayong, Rayong Province, Thailand

Public forecast

Using degrees Celsius for public forecast. Weather courtesy of forecast.io.

METAR (pilot weather report)

Retrieved 2019/07/21 22:30 UTC (0 seconds ago):

VTBU 212230Z 05002KT 9999 FEW020 SCT100 27/23 Q1008 NOSIG

TAF (pilot weather forecast)

Retrieved 2019/07/21 18:37 UTC (4 hours ago):

TAF VTBU 211700Z 2118/2218 24004KT 9999 FEW020 BECMG 2202/2204 22010KT